Time,TemperatureF,DewpointF,PressureIn,WindDirection,WindDirectionDegrees,WindSpeedMPH,WindSpeedGustMPH,Humidity,HourlyPrecipIn,Conditions,Clouds,dailyrainin,SoftwareType,DateUTC
2013-02-04 00:13:00,12.9,11.8,29.67,North,0,0.0,-999.0,95,-99.99,,,0.00,Acu-Link.com,2013-02-04 05:13:00,
2013-02-04 00:28:00,12.7,11.8,29.67,North,0,0.0,-999.0,96,-99.99,,,0.00,Acu-Link.com,2013-02-04 05:28:00,
2013-02-04 00:44:00,12.4,11.5,29.67,North,0,0.0,-999.0,96,-99.99,,,0.00,Acu-Link.com,2013-02-04 05:44:00,
2013-02-04 00:59:00,11.3,9.9,29.67,North,0,0.0,-999.0,94,-99.99,,,0.00,Acu-Link.com,2013-02-04 05:59:00,
2013-02-04 01:14:00,11.5,10.1,29.67,North,0,0.0,-999.0,94,-99.99,,,0.00,Acu-Link.com,2013-02-04 06:14:00,
2013-02-04 01:30:00,12.4,11.7,29.66,North,0,0.0,-999.0,97,-99.99,,,0.00,Acu-Link.com,2013-02-04 06:30:00,
2013-02-04 01:45:00,12.4,11.2,29.67,North,0,0.0,-999.0,95,-99.99,,,0.00,Acu-Link.com,2013-02-04 06:45:00,
2013-02-04 02:00:00,12.4,11.2,29.67,North,0,0.0,-999.0,95,-99.99,,,0.00,Acu-Link.com,2013-02-04 07:00:00,
2013-02-04 02:15:00,11.8,10.2,29.67,North,0,0.0,-999.0,93,-99.99,,,0.00,Acu-Link.com,2013-02-04 07:15:00,
2013-02-04 02:30:00,10.9,8.8,29.67,North,0,0.0,-999.0,91,-99.99,,,0.00,Acu-Link.com,2013-02-04 07:30:00,
2013-02-04 02:46:00,11.8,10.9,29.67,North,0,0.0,-999.0,96,-99.99,,,0.00,Acu-Link.com,2013-02-04 07:46:00,
2013-02-04 03:01:00,11.7,10.5,29.67,North,0,0.0,-999.0,95,-99.99,,,0.00,Acu-Link.com,2013-02-04 08:01:00,
2013-02-04 03:16:00,11.7,10.3,29.67,North,0,0.0,-999.0,94,-99.99,,,0.00,Acu-Link.com,2013-02-04 08:16:00,
2013-02-04 03:32:00,11.8,10.5,29.67,North,0,0.0,-999.0,94,-99.99,,,0.00,Acu-Link.com,2013-02-04 08:32:00,
2013-02-04 03:47:00,12.6,11.6,29.67,North,0,0.0,-999.0,96,-99.99,,,0.00,Acu-Link.com,2013-02-04 08:47:00,
2013-02-04 04:02:00,12.9,11.8,29.67,North,0,0.0,-999.0,95,-99.99,,,0.00,Acu-Link.com,2013-02-04 09:02:00,
2013-02-04 04:18:00,13.8,12.7,29.68,North,0,1.1,-999.0,95,-99.99,,,0.00,Acu-Link.com,2013-02-04 09:18:00,
2013-02-04 04:33:00,13.5,12.3,29.68,North,0,0.0,-999.0,95,-99.99,,,0.00,Acu-Link.com,2013-02-04 09:33:00,
2013-02-04 04:48:00,12.4,10.7,29.68,North,0,0.0,-999.0,93,-99.99,,,0.00,Acu-Link.com,2013-02-04 09:48:00,
2013-02-04 05:03:00,12.7,11.6,29.69,North,0,0.0,-999.0,95,-99.99,,,0.00,Acu-Link.com,2013-02-04 10:03:00,
2013-02-04 05:19:00,12.7,11.8,29.69,North,0,0.0,-999.0,96,-99.99,,,0.00,Acu-Link.com,2013-02-04 10:19:00,
2013-02-04 05:34:00,13.1,11.7,29.70,North,0,1.6,-999.0,94,-99.99,,,0.00,Acu-Link.com,2013-02-04 10:34:00,
2013-02-04 05:49:00,14.0,12.6,29.70,North,0,1.6,-999.0,94,-99.99,,,0.00,Acu-Link.com,2013-02-04 10:49:00,
2013-02-04 06:05:00,15.4,12.8,29.71,North,0,0.0,-999.0,89,-99.99,,,0.00,Acu-Link.com,2013-02-04 11:05:00,
2013-02-04 06:20:00,18.0,13.7,29.72,NNW,337,2.7,-999.0,83,-99.99,,,0.00,Acu-Link.com,2013-02-04 11:20:00,
2013-02-04 06:35:00,18.5,13.4,29.72,NNW,337,3.1,-999.0,80,-99.99,,,0.00,Acu-Link.com,2013-02-04 11:35:00,
2013-02-04 06:51:00,18.9,12.9,29.72,NNW,337,1.1,-999.0,77,-99.99,,,0.00,Acu-Link.com,2013-02-04 11:51:00,
2013-02-04 07:06:00,19.2,12.6,29.73,NNW,337,2.7,-999.0,75,-99.99,,,0.00,Acu-Link.com,2013-02-04 12:06:00,
2013-02-04 07:21:00,19.2,12.0,29.73,NNW,337,6.7,-999.0,73,-99.99,,,0.00,Acu-Link.com,2013-02-04 12:21:00,
2013-02-04 07:36:00,19.6,12.0,29.74,NNW,337,1.6,-999.0,72,-99.99,,,0.00,Acu-Link.com,2013-02-04 12:36:00,
2013-02-04 07:51:00,21.4,12.2,29.74,NNW,337,1.6,-999.0,67,-99.99,,,0.00,Acu-Link.com,2013-02-04 12:51:00,
2013-02-04 08:07:00,22.5,12.2,29.74,North,0,2.7,-999.0,64,-99.99,,,0.00,Acu-Link.com,2013-02-04 13:07:00,
2013-02-04 08:22:00,23.2,11.8,29.75,SW,225,2.7,-999.0,61,-99.99,,,0.00,Acu-Link.com,2013-02-04 13:22:00,
2013-02-04 08:37:00,23.2,11.4,29.75,NNW,337,4.3,-999.0,60,-99.99,,,0.00,Acu-Link.com,2013-02-04 13:37:00,
2013-02-04 08:53:00,24.3,12.0,29.75,SW,225,2.7,-999.0,59,-99.99,,,0.00,Acu-Link.com,2013-02-04 13:53:00,
2013-02-04 09:08:00,24.8,11.8,29.75,SSW,202,4.7,-999.0,57,-99.99,,,0.00,Acu-Link.com,2013-02-04 14:08:00,
2013-02-04 09:23:00,25.0,10.7,29.76,SSW,202,6.3,-999.0,54,-99.99,,,0.00,Acu-Link.com,2013-02-04 14:23:00,
2013-02-04 09:39:00,26.1,10.9,29.76,NNW,337,4.7,-999.0,52,-99.99,,,0.00,Acu-Link.com,2013-02-04 14:39:00,
2013-02-04 09:54:00,25.5,10.8,29.75,North,0,3.1,-999.0,53,-99.99,,,0.00,Acu-Link.com,2013-02-04 14:54:00,
2013-02-04 10:09:00,24.3,9.6,29.76,NW,315,4.3,-999.0,53,-99.99,,,0.00,Acu-Link.com,2013-02-04 15:09:00,
2013-02-04 10:24:00,24.1,9.0,29.76,NNW,337,3.8,-999.0,52,-99.99,,,0.00,Acu-Link.com,2013-02-04 15:24:00,
2013-02-04 10:40:00,25.5,10.4,29.76,WSW,247,3.8,-999.0,52,-99.99,,,0.00,Acu-Link.com,2013-02-04 15:40:00,
2013-02-04 10:55:00,26.6,10.9,29.76,SW,225,3.1,-999.0,51,-99.99,,,0.00,Acu-Link.com,2013-02-04 15:55:00,
2013-02-04 11:10:00,25.7,10.5,29.76,SSE,157,2.2,-999.0,52,-99.99,,,0.00,Acu-Link.com,2013-02-04 16:10:00,
2013-02-04 11:26:00,26.6,10.0,29.75,NNW,337,2.7,-999.0,49,-99.99,,,0.00,Acu-Link.com,2013-02-04 16:26:00,
2013-02-04 11:41:00,25.7,9.2,29.75,NW,315,2.2,-999.0,49,-99.99,,,0.00,Acu-Link.com,2013-02-04 16:41:00,
2013-02-04 11:56:00,25.0,8.6,29.75,West,270,4.3,-999.0,49,-99.99,,,0.00,Acu-Link.com,2013-02-04 16:56:00,
2013-02-04 12:11:00,25.5,8.1,29.74,NW,315,2.7,-999.0,47,-99.99,,,0.00,Acu-Link.com,2013-02-04 17:11:00,
2013-02-04 12:27:00,25.3,7.5,29.74,SW,225,4.7,-999.0,46,-99.99,,,0.00,Acu-Link.com,2013-02-04 17:27:00,
2013-02-04 12:42:00,25.3,8.0,29.74,SW,225,2.2,-999.0,47,-99.99,,,0.00,Acu-Link.com,2013-02-04 17:42:00,
2013-02-04 12:57:00,25.2,6.8,29.74,North,0,3.8,-999.0,45,-99.99,,,0.00,Acu-Link.com,2013-02-04 17:57:00,
2013-02-04 13:12:00,26.8,8.3,29.73,NW,315,1.6,-999.0,45,-99.99,,,0.00,Acu-Link.com,2013-02-04 18:12:00,
2013-02-04 13:28:00,27.0,6.4,29.74,NW,315,8.3,-999.0,41,-99.99,,,0.00,Acu-Link.com,2013-02-04 18:28:00,
2013-02-04 13:43:00,26.4,7.0,29.73,WSW,247,5.8,-999.0,43,-99.99,,,0.00,Acu-Link.com,2013-02-04 18:43:00,
2013-02-04 13:58:00,27.3,7.3,29.74,WSW,247,7.8,-999.0,42,-99.99,,,0.00,Acu-Link.com,2013-02-04 18:58:00,
2013-02-04 14:14:00,26.2,7.3,29.74,NNW,337,9.4,-999.0,44,-99.99,,,0.00,Acu-Link.com,2013-02-04 19:14:00,
2013-02-04 14:29:00,26.4,8.5,29.75,NW,315,5.8,-999.0,46,-99.99,,,0.00,Acu-Link.com,2013-02-04 19:29:00,
2013-02-04 14:44:00,25.5,9.9,29.75,West,270,4.7,-999.0,51,-99.99,,,0.00,Acu-Link.com,2013-02-04 19:44:00,
2013-02-04 15:00:00,27.3,10.3,29.75,West,270,8.9,-999.0,48,-99.99,,,0.00,Acu-Link.com,2013-02-04 20:00:00,
2013-02-04 15:15:00,28.0,10.9,29.75,SW,225,4.7,-999.0,48,-99.99,,,0.00,Acu-Link.com,2013-02-04 20:15:00,
2013-02-04 15:30:00,27.0,9.5,29.75,WSW,247,4.3,-999.0,47,-99.99,,,0.00,Acu-Link.com,2013-02-04 20:30:00,
2013-02-04 15:45:00,26.1,10.9,29.75,NNW,337,2.2,-999.0,52,-99.99,,,0.00,Acu-Link.com,2013-02-04 20:45:00,
2013-02-04 16:01:00,25.2,11.3,29.75,North,0,1.6,-999.0,55,-99.99,,,0.00,Acu-Link.com,2013-02-04 21:01:00,
2013-02-04 16:16:00,25.2,10.9,29.75,NNW,337,2.2,-999.0,54,-99.99,,,0.00,Acu-Link.com,2013-02-04 21:16:00,
2013-02-04 16:31:00,24.3,10.0,29.75,NNW,337,4.7,-999.0,54,-99.99,,,0.00,Acu-Link.com,2013-02-04 21:31:00,
2013-02-04 16:46:00,23.7,9.9,29.75,North,0,7.4,-999.0,55,-99.99,,,0.00,Acu-Link.com,2013-02-04 21:46:00,
2013-02-04 17:02:00,22.8,11.0,29.76,North,0,4.7,-999.0,60,-99.99,,,0.00,Acu-Link.com,2013-02-04 22:02:00,
2013-02-04 17:17:00,22.5,11.1,29.78,North,0,2.2,-999.0,61,-99.99,,,0.00,Acu-Link.com,2013-02-04 22:17:00,
2013-02-04 17:32:00,21.7,10.4,29.78,North,0,2.7,-999.0,61,-99.99,,,0.00,Acu-Link.com,2013-02-04 22:32:00,
2013-02-04 17:47:00,21.4,10.4,29.79,North,0,1.6,-999.0,62,-99.99,,,0.00,Acu-Link.com,2013-02-04 22:47:00,
2013-02-04 18:03:00,21.0,10.1,29.79,North,0,1.6,-999.0,62,-99.99,,,0.00,Acu-Link.com,2013-02-04 23:03:00,
2013-02-04 18:18:00,19.9,10.1,29.80,North,0,0.0,-999.0,65,-99.99,,,0.00,Acu-Link.com,2013-02-04 23:18:00,
2013-02-04 18:33:00,19.4,10.3,29.80,North,0,0.0,-999.0,67,-99.99,,,0.00,Acu-Link.com,2013-02-04 23:33:00,
2013-02-04 18:49:00,19.2,10.7,29.81,North,0,0.0,-999.0,69,-99.99,,,0.00,Acu-Link.com,2013-02-04 23:49:00,
2013-02-04 19:04:00,18.9,10.7,29.82,North,0,2.2,-999.0,70,-99.99,,,0.00,Acu-Link.com,2013-02-05 00:04:00,
2013-02-04 19:19:00,17.1,10.2,29.82,North,0,0.0,-999.0,74,-99.99,,,0.00,Acu-Link.com,2013-02-05 00:19:00,
2013-02-04 19:35:00,16.7,10.5,29.83,North,0,0.0,-999.0,76,-99.99,,,0.00,Acu-Link.com,2013-02-05 00:35:00,
2013-02-04 19:50:00,15.4,10.1,29.83,North,0,0.0,-999.0,79,-99.99,,,0.00,Acu-Link.com,2013-02-05 00:50:00,
2013-02-04 20:05:00,15.1,10.0,29.83,North,0,0.0,-999.0,80,-99.99,,,0.00,Acu-Link.com,2013-02-05 01:05:00,
2013-02-04 20:20:00,14.2,10.0,29.83,North,0,0.0,-999.0,83,-99.99,,,0.00,Acu-Link.com,2013-02-05 01:20:00,
2013-02-04 20:36:00,14.0,10.1,29.84,North,0,0.0,-999.0,84,-99.99,,,0.00,Acu-Link.com,2013-02-05 01:36:00,
2013-02-04 20:51:00,13.8,9.6,29.85,North,0,0.0,-999.0,83,-99.99,,,0.00,Acu-Link.com,2013-02-05 01:51:00,
2013-02-04 21:06:00,13.5,9.5,29.85,North,0,1.1,-999.0,84,-99.99,,,0.00,Acu-Link.com,2013-02-05 02:06:00,
2013-02-04 21:22:00,14.4,9.3,29.86,North,0,0.0,-999.0,80,-99.99,,,0.00,Acu-Link.com,2013-02-05 02:22:00,
2013-02-04 21:37:00,14.2,8.6,29.86,North,0,0.0,-999.0,78,-99.99,,,0.00,Acu-Link.com,2013-02-05 02:37:00,
2013-02-04 21:52:00,14.0,9.3,29.86,North,0,0.0,-999.0,81,-99.99,,,0.00,Acu-Link.com,2013-02-05 02:52:00,
2013-02-04 22:08:00,13.6,9.5,29.86,North,0,1.6,-999.0,83,-99.99,,,0.00,Acu-Link.com,2013-02-05 03:08:00,
2013-02-04 22:23:00,15.8,9.6,29.85,North,0,2.2,-999.0,76,-99.99,,,0.00,Acu-Link.com,2013-02-05 03:23:00,
2013-02-04 22:38:00,18.1,9.1,29.85,North,0,2.7,-999.0,67,-99.99,,,0.00,Acu-Link.com,2013-02-05 03:38:00,
2013-02-04 22:53:00,18.1,9.1,29.86,North,0,2.2,-999.0,67,-99.99,,,0.00,Acu-Link.com,2013-02-05 03:53:00,
2013-02-04 23:09:00,18.3,8.9,29.86,North,0,0.0,-999.0,66,-99.99,,,0.00,Acu-Link.com,2013-02-05 04:09:00,
2013-02-04 23:24:00,18.1,8.7,29.86,North,0,0.0,-999.0,66,-99.99,,,0.00,Acu-Link.com,2013-02-05 04:24:00,
2013-02-04 23:39:00,18.7,9.6,29.87,North,0,3.1,-999.0,67,-99.99,,,0.00,Acu-Link.com,2013-02-05 04:39:00,
2013-02-04 23:55:00,18.7,9.6,29.87,North,0,2.7,-999.0,67,-99.99,,,0.00,Acu-Link.com,2013-02-05 04:55:00,